TERMINUS DAM (TRM)

Elevation: 752' · KAWEAH R basin · Operator: US Army Corps of Engineers

Provisional data, subject to change.
Query executed Saturday at 2:20:58   clock

Select a sensor type for a plot of data.
Note: Reservoir Flows are daily averages.

Earlier

Date RES ELE    STORAGE    RES CHG    TOC STO    ABV TOC    OUTFLOW    INFLOW    FNF    PPT INC    TEMP MN    TEMP MX    WINDLEN    EVP PAN   
 FEET   AF   AF   AF   AF   CFS   CFS   CFS   INCHES   DEG F   DEG F   MILES   INCHES  
07/24/2014 612.89 29305 -529 171200 -141895 287 53 53 0.00 20 36 84 0.32
07/25/2014 612.26 28790 -515 167340 -138550 269 36 50 e 0.00 24 39 105 0.37
07/26/2014 611.63 28281 -509 163470 -135189 271 22 49 e 0.00 25 40 95 0.35
07/27/2014 610.99 27770 -511 159610 -131840 271 23 49 e 0.00 25 40 85 0.32
07/28/2014 610.58 27447 -323 155910 -128463 185 116 49 e 0.00 25 36 92 0.25
07/29/2014 610.29 27219 -228 158830 -131611 117 76 76 e 0.00 25 40 97 0.34
07/30/2014 610.00 26993 -226 185300 -158307 125 12 12 e 0.00 27 38 89 0.25
07/31/2014 609.70 26760 -233 185300 -158540 122 14 14 0.00 27 41 97 0.34
08/01/2014 609.42 26544 -216 185300 -158756 117 22 22 0.00 26 41 98 0.35
08/02/2014 609.13 26322 -222 185300 -158978 117 15 15 0.00 25 39 87 0.29
08/03/2014 608.85 26108 -214 185300 -159192 118 17 17 0.00 26 33 73 0.17
08/04/2014 608.59 25911 -197 185300 -159389 118 23 23 0.00 24 36 84 0.26
08/05/2014 608.34 25723 -188 185300 -159577 118 30 30 0.00 20 36 91 0.31
08/06/2014 608.09 25535 -188 185300 -159765 118 31 31 0.00 20 36 90 0.30
08/07/2014 607.83 25341 -194 185300 -159959 115 28 28 0.00 23 37 103 0.32
08/08/2014 607.57 25148 -193 185300 -160152 114 26 26 0.00 25 39 99 0.33
08/09/2014 607.31 24956 -192 185300 -160344 112 26 26 0.00 22 40 84 0.32
08/10/2014 607.05 24765 -191 185300 -160535 112 23 23 0.00 21 38 90 0.32
08/11/2014 606.78 24567 -198 185300 -160733 112 20 20 0.00 21 38 73 0.27
08/12/2014 606.50 24364 -203 185300 -160936 112 17 17 0.00 24 39 114 0.34
08/13/2014 606.25 24183 -181 185300 -161117 112 30 30 0.00 21 38 86 0.31
08/14/2014 605.99 23996 -187 185300 -161304 113 26 26 0.00 20 37 83 0.30
08/15/2014 605.70 23789 -207 185300 -161511 114 16 16 0.00 21 39 92 0.33
08/16/2014 605.42 23590 -199 185300 -161710 114 22 22 0.00 22 39 107 0.34
08/17/2014 605.13 23385 -205 185300 -161915 113 19 19 0.00 23 39 102 0.34
08/18/2014 604.83 23175 -210 185300 -162125 110 16 16 0.00 20 38 94 0.31
08/19/2014 604.55 22979 -196 185300 -162321 100 19 19 0.00 20 33 85 0.27
08/20/2014 604.27 22785 -194 185300 -162515 98 9 -- 0.00 18 35 78 0.28
08/21/2014 603.98 22585 -200 185300 -162715 101 3 -- 0.00 19 38 88 0.30
08/22/2014 -- -- -- 185300 -- -- -- -- -- -- -- -- --
08/23/2014 -- -- -- -- -- -- -- -- -- -- -- -- --

Later | Latest

Warning! This data is preliminary and subject to revision.

Download Data Now Download Data Now | Show TRM Map | Plot TRM Data | 1 Month TRM Data | Real-Time TRM Data | TRM Info